sensor_id;sensor_type;location;lat;lon;timestamp;pressure;altitude;pressure_sealevel;temperature;humidity
38718;BME280;24468;52.128;9.278;2023-04-09T00:01:11;101824.44;;;4.85;100.00
38718;BME280;24468;52.128;9.278;2023-04-09T00:03:37;101826.22;;;4.87;100.00
38718;BME280;24468;52.128;9.278;2023-04-09T00:06:06;101832.47;;;4.65;100.00
38718;BME280;24468;52.128;9.278;2023-04-09T00:08:32;101824.44;;;4.74;100.00
38718;BME280;24468;52.128;9.278;2023-04-09T00:10:58;101819.06;;;4.54;100.00
38718;BME280;24468;52.128;9.278;2023-04-09T00:13:24;101811.06;;;4.62;100.00
38718;BME280;24468;52.128;9.278;2023-04-09T00:15:50;101826.22;;;4.57;100.00
38718;BME280;24468;52.128;9.278;2023-04-09T00:18:15;101818.19;;;4.67;100.00
38718;BME280;24468;52.128;9.278;2023-04-09T00:20:42;101820.00;;;4.81;100.00
38718;BME280;24468;52.128;9.278;2023-04-09T00:23:08;101823.56;;;4.89;100.00
38718;BME280;24468;52.128;9.278;2023-04-09T00:25:33;101824.44;;;4.89;100.00
38718;BME280;24468;52.128;9.278;2023-04-09T00:27:59;101820.88;;;5.03;100.00
38718;BME280;24468;52.128;9.278;2023-04-09T00:30:28;101821.75;;;5.05;100.00
38718;BME280;24468;52.128;9.278;2023-04-09T00:32:54;101809.25;;;5.04;100.00
38718;BME280;24468;52.128;9.278;2023-04-09T00:35:19;101823.53;;;5.01;100.00
38718;BME280;24468;52.128;9.278;2023-04-09T00:37:45;101809.28;;;5.01;100.00
38718;BME280;24468;52.128;9.278;2023-04-09T00:40:11;101813.72;;;4.88;100.00
38718;BME280;24468;52.128;9.278;2023-04-09T00:42:36;101812.84;;;4.84;100.00
38718;BME280;24468;52.128;9.278;2023-04-09T00:45:03;101808.41;;;4.83;100.00
38718;BME280;24468;52.128;9.278;2023-04-09T00:47:29;101815.53;;;4.75;100.00
38718;BME280;24468;52.128;9.278;2023-04-09T00:49:57;101810.16;;;4.63;100.00
38718;BME280;24468;52.128;9.278;2023-04-09T00:52:24;101807.53;;;4.72;100.00
38718;BME280;24468;52.128;9.278;2023-04-09T00:54:51;101814.59;;;4.38;100.00
38718;BME280;24468;52.128;9.278;2023-04-09T00:57:18;101818.16;;;4.35;100.00
38718;BME280;24468;52.128;9.278;2023-04-09T00:59:44;101813.72;;;4.43;100.00
38718;BME280;24468;52.128;9.278;2023-04-09T01:02:10;101811.97;;;4.47;100.00
38718;BME280;24468;52.128;9.278;2023-04-09T01:04:38;101815.50;;;4.49;100.00
38718;BME280;24468;52.128;9.278;2023-04-09T01:07:18;101810.16;;;4.38;100.00
38718;BME280;24468;52.128;9.278;2023-04-09T01:12:35;101811.03;;;4.33;100.00
38718;BME280;24468;52.128;9.278;2023-04-09T01:15:12;101809.25;;;4.35;100.00
38718;BME280;24468;52.128;9.278;2023-04-09T01:17:59;101810.16;;;4.26;100.00
38718;BME280;24468;52.128;9.278;2023-04-09T01:20:59;101810.19;;;4.44;100.00
38718;BME280;24468;52.128;9.278;2023-04-09T01:24:09;101809.19;;;4.03;100.00
38718;BME280;24468;52.128;9.278;2023-04-09T01:26:56;101813.59;;;3.94;100.00
38718;BME280;24468;52.128;9.278;2023-04-09T01:29:23;101811.00;;;4.04;100.00
38718;BME280;24468;52.128;9.278;2023-04-09T01:31:50;101806.47;;;3.89;100.00
38718;BME280;24468;52.128;9.278;2023-04-09T01:34:16;101809.13;;;3.89;100.00
38718;BME280;24468;52.128;9.278;2023-04-09T01:36:51;101809.97;;;3.69;100.00
38718;BME280;24468;52.128;9.278;2023-04-09T01:39:17;101802.09;;;4.06;100.00
38718;BME280;24468;52.128;9.278;2023-04-09T01:41:44;101808.31;;;4.00;100.00
38718;BME280;24468;52.128;9.278;2023-04-09T01:44:11;101806.53;;;4.04;100.00
38718;BME280;24468;52.128;9.278;2023-04-09T01:46:38;101806.53;;;4.10;100.00
38718;BME280;24468;52.128;9.278;2023-04-09T01:49:05;101808.28;;;3.96;100.00
38718;BME280;24468;52.128;9.278;2023-04-09T01:51:31;101808.28;;;3.99;100.00
38718;BME280;24468;52.128;9.278;2023-04-09T01:53:59;101801.16;;;3.99;100.00
38718;BME280;24468;52.128;9.278;2023-04-09T01:56:24;101794.09;;;4.06;100.00
38718;BME280;24468;52.128;9.278;2023-04-09T01:58:50;101794.97;;;4.10;100.00
38718;BME280;24468;52.128;9.278;2023-04-09T02:01:34;101803.03;;;4.33;100.00
38718;BME280;24468;52.128;9.278;2023-04-09T02:04:03;101804.81;;;4.34;100.00
38718;BME280;24468;52.128;9.278;2023-04-09T02:06:55;101801.22;;;4.30;100.00
38718;BME280;24468;52.128;9.278;2023-04-09T02:09:23;101789.69;;;4.31;100.00
38718;BME280;24468;52.128;9.278;2023-04-09T02:11:49;101787.00;;;4.34;100.00
38718;BME280;24468;52.128;9.278;2023-04-09T02:14:15;101803.94;;;4.45;100.00
38718;BME280;24468;52.128;9.278;2023-04-09T02:16:42;101794.16;;;4.51;100.00
38718;BME280;24468;52.128;9.278;2023-04-09T02:19:08;101794.13;;;4.34;100.00
38718;BME280;24468;52.128;9.278;2023-04-09T02:21:34;101794.09;;;4.28;100.00
38718;BME280;24468;52.128;9.278;2023-04-09T02:23:59;101800.34;;;4.33;100.00
38718;BME280;24468;52.128;9.278;2023-04-09T02:26:25;101795.81;;;3.93;100.00
38718;BME280;24468;52.128;9.278;2023-04-09T02:28:50;101803.88;;;4.04;100.00
38718;BME280;24468;52.128;9.278;2023-04-09T02:31:16;101802.97;;;4.05;100.00
38718;BME280;24468;52.128;9.278;2023-04-09T02:33:41;101790.50;;;4.07;100.00
38718;BME280;24468;52.128;9.278;2023-04-09T02:36:11;101794.09;;;4.12;100.00
38718;BME280;24468;52.128;9.278;2023-04-09T02:38:40;101786.97;;;4.14;100.00
38718;BME280;24468;52.128;9.278;2023-04-09T02:41:06;101791.44;;;4.20;100.00
38718;BME280;24468;52.128;9.278;2023-04-09T02:43:32;101786.09;;;4.23;100.00
38718;BME280;24468;52.128;9.278;2023-04-09T02:45:57;101789.63;;;4.16;100.00
38718;BME280;24468;52.128;9.278;2023-04-09T02:48:23;101792.28;;;4.08;100.00
38718;BME280;24468;52.128;9.278;2023-04-09T02:50:48;101781.56;;;3.97;100.00
38718;BME280;24468;52.128;9.278;2023-04-09T02:53:14;101791.38;;;3.98;100.00
38718;BME280;24468;52.128;9.278;2023-04-09T02:55:39;101777.13;;;4.03;100.00
38718;BME280;24468;52.128;9.278;2023-04-09T02:58:05;101776.25;;;4.11;100.00
38718;BME280;24468;52.128;9.278;2023-04-09T03:00:31;101774.50;;;4.13;100.00
38718;BME280;24468;52.128;9.278;2023-04-09T03:02:56;101783.38;;;4.08;100.00
38718;BME280;24468;52.128;9.278;2023-04-09T03:05:22;101778.91;;;3.90;100.00
38718;BME280;24468;52.128;9.278;2023-04-09T03:07:48;101778.91;;;3.97;100.00
38718;BME280;24468;52.128;9.278;2023-04-09T03:10:14;101772.69;;;3.98;100.00
38718;BME280;24468;52.128;9.278;2023-04-09T03:12:39;101777.13;;;4.03;100.00
38718;BME280;24468;52.128;9.278;2023-04-09T03:15:06;101770.91;;;4.02;100.00
38718;BME280;24468;52.128;9.278;2023-04-09T03:17:31;101774.50;;;4.07;100.00
38718;BME280;24468;52.128;9.278;2023-04-09T03:19:57;101774.50;;;4.16;100.00
38718;BME280;24468;52.128;9.278;2023-04-09T03:22:23;101764.72;;;4.23;100.00
38718;BME280;24468;52.128;9.278;2023-04-09T03:24:48;101769.19;;;4.39;100.00
38718;BME280;24468;52.128;9.278;2023-04-09T03:27:14;101764.72;;;4.49;100.00
38718;BME280;24468;52.128;9.278;2023-04-09T03:29:40;101768.31;;;4.51;100.00
38718;BME280;24468;52.128;9.278;2023-04-09T03:32:05;101764.72;;;4.41;100.00
38718;BME280;24468;52.128;9.278;2023-04-09T03:34:31;101764.75;;;4.44;100.00
38718;BME280;24468;52.128;9.278;2023-04-09T03:36:56;101767.41;;;4.64;100.00
38718;BME280;24468;52.128;9.278;2023-04-09T03:39:21;101768.31;;;4.65;100.00
38718;BME280;24468;52.128;9.278;2023-04-09T03:41:47;101762.94;;;4.79;100.00
38718;BME280;24468;52.128;9.278;2023-04-09T03:44:12;101767.41;;;4.75;100.00
38718;BME280;24468;52.128;9.278;2023-04-09T03:46:38;101767.41;;;4.29;100.00
38718;BME280;24468;52.128;9.278;2023-04-09T03:49:04;101761.19;;;4.49;100.00
38718;BME280;24468;52.128;9.278;2023-04-09T03:51:29;101766.53;;;4.59;100.00
38718;BME280;24468;52.128;9.278;2023-04-09T03:53:56;101760.28;;;4.56;100.00
38718;BME280;24468;52.128;9.278;2023-04-09T03:56:21;101762.03;;;4.77;100.00
38718;BME280;24468;52.128;9.278;2023-04-09T03:58:47;101754.03;;;4.92;100.00
38718;BME280;24468;52.128;9.278;2023-04-09T04:01:14;101766.47;;;5.13;100.00
38718;BME280;24468;52.128;9.278;2023-04-09T04:03:39;101757.50;;;5.26;100.00
38718;BME280;24468;52.128;9.278;2023-04-09T04:06:05;101769.97;;;5.26;100.00
38718;BME280;24468;52.128;9.278;2023-04-09T04:08:30;101761.19;;;4.85;100.00
38718;BME280;24468;52.128;9.278;2023-04-09T04:11:03;101766.53;;;4.56;100.00
38718;BME280;24468;52.128;9.278;2023-04-09T04:13:29;101768.31;;;4.65;100.00
38718;BME280;24468;52.128;9.278;2023-04-09T04:15:54;101765.63;;;4.77;100.00
38718;BME280;24468;52.128;9.278;2023-04-09T04:18:20;101765.59;;;4.96;100.00
38718;BME280;24468;52.128;9.278;2023-04-09T04:20:45;101772.75;;;4.81;100.00
38718;BME280;24468;52.128;9.278;2023-04-09T04:23:11;101770.97;;;4.76;100.00
38718;BME280;24468;52.128;9.278;2023-04-09T04:25:40;101779.88;;;4.78;100.00
38718;BME280;24468;52.128;9.278;2023-04-09T04:28:06;101777.22;;;4.42;100.00
38718;BME280;24468;52.128;9.278;2023-04-09T04:30:31;101774.53;;;4.65;100.00
38718;BME280;24468;52.128;9.278;2023-04-09T04:32:57;101783.44;;;4.75;100.00
38718;BME280;24468;52.128;9.278;2023-04-09T04:35:22;101782.56;;;4.67;100.00
38718;BME280;24468;52.128;9.278;2023-04-09T04:37:49;101781.66;;;4.74;100.00
38718;BME280;24468;52.128;9.278;2023-04-09T04:40:15;101770.94;;;4.96;100.00
38718;BME280;24468;52.128;9.278;2023-04-09T04:42:41;101781.63;;;5.02;100.00
38718;BME280;24468;52.128;9.278;2023-04-09T04:45:08;101778.94;;;5.02;100.00
38718;BME280;24468;52.128;9.278;2023-04-09T04:47:33;101773.56;;;5.22;100.00
38718;BME280;24468;52.128;9.278;2023-04-09T04:49:59;101777.97;;;5.32;100.00
38718;BME280;24468;52.128;9.278;2023-04-09T04:52:25;101777.06;;;5.47;100.00
38718;BME280;24468;52.128;9.278;2023-04-09T04:54:51;101780.63;;;5.40;100.00
38718;BME280;24468;52.128;9.278;2023-04-09T04:57:16;101786.88;;;5.46;100.00
38718;BME280;24468;52.128;9.278;2023-04-09T04:59:42;101780.63;;;5.43;100.00
38718;BME280;24468;52.128;9.278;2023-04-09T05:02:08;101780.66;;;5.33;100.00
38718;BME280;24468;52.128;9.278;2023-04-09T05:04:33;101781.53;;;5.43;100.00
38718;BME280;24468;52.128;9.278;2023-04-09T05:06:59;101783.28;;;5.50;100.00
38718;BME280;24468;52.128;9.278;2023-04-09T05:09:24;101782.41;;;5.45;100.00
38718;BME280;24468;52.128;9.278;2023-04-09T05:11:50;101784.22;;;5.46;100.00
38718;BME280;24468;52.128;9.278;2023-04-09T05:14:16;101782.47;;;5.28;100.00
38718;BME280;24468;52.128;9.278;2023-04-09T05:16:41;101784.28;;;5.19;100.00
38718;BME280;24468;52.128;9.278;2023-04-09T05:19:07;101778.97;;;4.93;100.00
38718;BME280;24468;52.128;9.278;2023-04-09T05:21:32;101788.81;;;4.83;100.00
38718;BME280;24468;52.128;9.278;2023-04-09T05:23:58;101794.13;;;4.89;100.00
38718;BME280;24468;52.128;9.278;2023-04-09T05:26:23;101789.69;;;4.91;100.00
38718;BME280;24468;52.128;9.278;2023-04-09T05:28:49;101786.97;;;5.08;100.00
38718;BME280;24468;52.128;9.278;2023-04-09T05:31:15;101785.13;;;5.28;100.00
38718;BME280;24468;52.128;9.278;2023-04-09T05:33:41;101790.56;;;4.99;100.00
38718;BME280;24468;52.128;9.278;2023-04-09T05:36:07;101801.28;;;4.84;100.00
38718;BME280;24468;52.128;9.278;2023-04-09T05:38:33;101798.56;;;5.01;100.00
38718;BME280;24468;52.128;9.278;2023-04-09T05:40:59;101799.44;;;5.15;100.00
38718;BME280;24468;52.128;9.278;2023-04-09T05:43:25;101797.63;;;5.31;100.00
38718;BME280;24468;52.128;9.278;2023-04-09T05:45:50;101802.09;;;5.30;100.00
38718;BME280;24468;52.128;9.278;2023-04-09T05:48:16;101799.41;;;5.29;100.00
38718;BME280;24468;52.128;9.278;2023-04-09T05:50:49;101801.19;;;5.41;100.00
38718;BME280;24468;52.128;9.278;2023-04-09T05:53:20;101808.25;;;5.55;100.00
38718;BME280;24468;52.128;9.278;2023-04-09T05:55:46;101802.88;;;5.58;100.00
38718;BME280;24468;52.128;9.278;2023-04-09T05:58:14;101803.81;;;5.47;100.00
38718;BME280;24468;52.128;9.278;2023-04-09T06:00:40;101800.09;;;5.83;100.00
38718;BME280;24468;52.128;9.278;2023-04-09T06:03:08;101800.97;;;5.87;100.00
38718;BME280;24468;52.128;9.278;2023-04-09T06:05:34;101794.75;;;5.85;100.00
38718;BME280;24468;52.128;9.278;2023-04-09T06:08:00;101796.50;;;5.98;100.00
38718;BME280;24468;52.128;9.278;2023-04-09T06:10:26;101796.44;;;6.12;100.00
38718;BME280;24468;52.128;9.278;2023-04-09T06:12:51;101799.28;;;5.69;100.00
38718;BME280;24468;52.128;9.278;2023-04-09T06:15:17;101797.34;;;6.05;100.00
38718;BME280;24468;52.128;9.278;2023-04-09T06:17:43;101794.59;;;6.18;100.00
38718;BME280;24468;52.128;9.278;2023-04-09T06:20:09;101799.91;;;6.24;100.00
38718;BME280;24468;52.128;9.278;2023-04-09T06:22:35;101808.06;;;6.03;100.00
38718;BME280;24468;52.128;9.278;2023-04-09T06:25:01;101802.53;;;6.35;100.00
38718;BME280;24468;52.128;9.278;2023-04-09T06:27:27;101806.19;;;6.23;100.00
38718;BME280;24468;52.128;9.278;2023-04-09T06:29:52;101802.47;;;6.43;100.00
38718;BME280;24468;52.128;9.278;2023-04-09T06:32:18;101810.56;;;6.31;100.00
38718;BME280;24468;52.128;9.278;2023-04-09T06:34:43;101812.28;;;6.44;100.00
38718;BME280;24468;52.128;9.278;2023-04-09T06:37:09;101814.00;;;6.54;100.00
38718;BME280;24468;52.128;9.278;2023-04-09T06:39:34;101805.97;;;6.50;100.00
38718;BME280;24468;52.128;9.278;2023-04-09T06:42:00;101813.91;;;6.70;100.00
38718;BME280;24468;52.128;9.278;2023-04-09T06:44:25;101818.34;;;6.72;100.00
38718;BME280;24468;52.128;9.278;2023-04-09T06:46:51;101825.50;;;6.68;100.00
38718;BME280;24468;52.128;9.278;2023-04-09T06:49:17;101817.34;;;6.84;100.00
38718;BME280;24468;52.128;9.278;2023-04-09T06:51:42;101819.84;;;7.05;100.00
38718;BME280;24468;52.128;9.278;2023-04-09T06:54:08;101817.00;;;7.21;100.00
38718;BME280;24468;52.128;9.278;2023-04-09T06:56:33;101826.00;;;7.17;100.00
38718;BME280;24468;52.128;9.278;2023-04-09T06:58:59;101823.47;;;6.98;100.00
38718;BME280;24468;52.128;9.278;2023-04-09T07:01:25;101830.38;;;7.24;100.00
38718;BME280;24468;52.128;9.278;2023-04-09T07:03:50;101827.69;;;7.25;100.00
38718;BME280;24468;52.128;9.278;2023-04-09T07:06:16;101829.66;;;7.06;100.00
38718;BME280;24468;52.128;9.278;2023-04-09T07:08:42;101825.06;;;7.19;100.00
38718;BME280;24468;52.128;9.278;2023-04-09T07:11:07;101827.53;;;7.39;100.00
38718;BME280;24468;52.128;9.278;2023-04-09T07:13:33;101827.28;;;7.65;100.00
38718;BME280;24468;52.128;9.278;2023-04-09T07:15:58;101826.44;;;7.60;100.00
38718;BME280;24468;52.128;9.278;2023-04-09T07:18:24;101828.53;;;7.29;100.00
38718;BME280;24468;52.128;9.278;2023-04-09T07:20:51;101823.81;;;7.52;100.00
38718;BME280;24468;52.128;9.278;2023-04-09T07:23:16;101829.22;;;7.49;100.00
38718;BME280;24468;52.128;9.278;2023-04-09T07:25:42;101828.19;;;7.60;100.00
38718;BME280;24468;52.128;9.278;2023-04-09T07:28:07;101824.47;;;7.74;100.00
38718;BME280;24468;52.128;9.278;2023-04-09T07:30:33;101832.22;;;7.97;100.00
38718;BME280;24468;52.128;9.278;2023-04-09T07:32:59;101833.09;;;8.01;100.00
38718;BME280;24468;52.128;9.278;2023-04-09T07:35:24;101818.53;;;8.17;100.00
38718;BME280;24468;52.128;9.278;2023-04-09T07:37:50;101821.28;;;8.13;100.00
38718;BME280;24468;52.128;9.278;2023-04-09T07:40:16;101822.78;;;8.31;100.00
38718;BME280;24468;52.128;9.278;2023-04-09T07:42:41;101831.34;;;7.97;100.00
38718;BME280;24468;52.128;9.278;2023-04-09T07:45:07;101824.53;;;8.39;100.00
38718;BME280;24468;52.128;9.278;2023-04-09T07:47:33;101828.25;;;8.26;100.00
38718;BME280;24468;52.128;9.278;2023-04-09T07:49:58;101828.78;;;8.53;100.00
38718;BME280;24468;52.128;9.278;2023-04-09T07:52:24;101825.81;;;8.71;100.00
38718;BME280;24468;52.128;9.278;2023-04-09T07:54:50;101824.91;;;8.72;100.00
38718;BME280;24468;52.128;9.278;2023-04-09T07:57:15;101828.22;;;8.88;100.00
38718;BME280;24468;52.128;9.278;2023-04-09T07:59:41;101827.28;;;8.90;100.00
38718;BME280;24468;52.128;9.278;2023-04-09T08:02:07;101820.81;;;9.02;100.00
38718;BME280;24468;52.128;9.278;2023-04-09T08:04:32;101826.97;;;9.09;100.00
38718;BME280;24468;52.128;9.278;2023-04-09T08:06:58;101822.78;;;8.91;100.00
38718;BME280;24468;52.128;9.278;2023-04-09T08:09:23;101828.53;;;9.22;100.00
38718;BME280;24468;52.128;9.278;2023-04-09T08:11:49;101821.13;;;9.33;100.00
38718;BME280;24468;52.128;9.278;2023-04-09T08:14:16;101828.13;;;9.44;100.00
38718;BME280;24468;52.128;9.278;2023-04-09T08:16:44;101829.03;;;9.43;100.00
38718;BME280;24468;52.128;9.278;2023-04-09T08:19:12;101818.78;;;9.63;100.00
38718;BME280;24468;52.128;9.278;2023-04-09T08:21:40;101823.56;;;9.49;100.00
38718;BME280;24468;52.128;9.278;2023-04-09T08:24:11;101817.09;;;9.56;100.00
38718;BME280;24468;52.128;9.278;2023-04-09T08:26:38;101818.00;;;10.00;100.00
38718;BME280;24468;52.128;9.278;2023-04-09T08:29:03;101817.50;;;10.23;100.00
38718;BME280;24468;52.128;9.278;2023-04-09T08:31:29;101819.44;;;9.74;100.00
38718;BME280;24468;52.128;9.278;2023-04-09T08:33:55;101830.69;;;9.50;100.00
38718;BME280;24468;52.128;9.278;2023-04-09T08:36:21;101822.34;;;9.64;100.00
38718;BME280;24468;52.128;9.278;2023-04-09T08:38:47;101813.53;;;9.54;100.00
38718;BME280;24468;52.128;9.278;2023-04-09T08:41:23;101815.56;;;9.88;100.00
38718;BME280;24468;52.128;9.278;2023-04-09T08:43:51;101818.91;;;9.99;100.00
38718;BME280;24468;52.128;9.278;2023-04-09T08:46:18;101813.09;;;9.77;100.00
38718;BME280;24468;52.128;9.278;2023-04-09T08:48:45;101814.09;;;10.13;100.00
38718;BME280;24468;52.128;9.278;2023-04-09T08:51:13;101809.16;;;10.35;100.00
38718;BME280;24468;52.128;9.278;2023-04-09T08:53:51;101810.78;;;10.42;100.00
38718;BME280;24468;52.128;9.278;2023-04-09T08:56:18;101805.50;;;10.75;100.00
38718;BME280;24468;52.128;9.278;2023-04-09T08:58:45;101810.47;;;10.92;100.00
38718;BME280;24468;52.128;9.278;2023-04-09T09:01:37;101797.78;;;10.60;100.00
38718;BME280;24468;52.128;9.278;2023-04-09T09:04:05;101813.72;;;10.69;100.00
38718;BME280;24468;52.128;9.278;2023-04-09T09:06:36;101808.03;;;10.44;100.00
38718;BME280;24468;52.128;9.278;2023-04-09T09:09:13;101803.94;;;10.65;100.00
38718;BME280;24468;52.128;9.278;2023-04-09T09:11:46;101797.78;;;10.58;100.00
38718;BME280;24468;52.128;9.278;2023-04-09T09:14:18;101803.53;;;10.82;100.00
38718;BME280;24468;52.128;9.278;2023-04-09T09:17:03;101784.94;;;10.70;100.00
38718;BME280;24468;52.128;9.278;2023-04-09T09:19:31;101807.69;;;10.19;100.00
38718;BME280;24468;52.128;9.278;2023-04-09T09:22:05;101809.38;;;9.83;100.00
38718;BME280;24468;52.128;9.278;2023-04-09T09:24:33;101799.25;;;9.94;100.00
38718;BME280;24468;52.128;9.278;2023-04-09T09:27:00;101797.41;;;10.75;100.00
38718;BME280;24468;52.128;9.278;2023-04-09T09:29:27;101794.72;;;10.74;100.00
38718;BME280;24468;52.128;9.278;2023-04-09T09:31:54;101789.34;;;11.08;100.00
38718;BME280;24468;52.128;9.278;2023-04-09T09:34:22;101790.47;;;10.63;100.00
38718;BME280;24468;52.128;9.278;2023-04-09T09:36:49;101790.13;;;10.77;100.00
38718;BME280;24468;52.128;9.278;2023-04-09T09:39:15;101790.13;;;10.77;100.00
38718;BME280;24468;52.128;9.278;2023-04-09T09:41:43;101795.38;;;11.18;100.00
38718;BME280;24468;52.128;9.278;2023-04-09T09:44:11;101789.78;;;11.58;100.00
38718;BME280;24468;52.128;9.278;2023-04-09T09:46:39;101792.91;;;11.74;100.00
38718;BME280;24468;52.128;9.278;2023-04-09T09:49:07;101782.31;;;11.66;100.00
38718;BME280;24468;52.128;9.278;2023-04-09T09:51:36;101788.94;;;12.17;100.00
38718;BME280;24468;52.128;9.278;2023-04-09T09:54:04;101781.69;;;11.56;100.00
38718;BME280;24468;52.128;9.278;2023-04-09T09:56:35;101777.78;;;11.67;100.00
38718;BME280;24468;52.128;9.278;2023-04-09T09:59:20;101776.25;;;12.19;100.00
38718;BME280;24468;52.128;9.278;2023-04-09T10:01:47;101774.31;;;11.94;100.00
38718;BME280;24468;52.128;9.278;2023-04-09T10:04:18;101772.16;;;12.06;100.00
38718;BME280;24468;52.128;9.278;2023-04-09T10:06:44;101763.28;;;12.00;100.00
38718;BME280;24468;52.128;9.278;2023-04-09T10:09:10;101759.88;;;11.31;100.00
38718;BME280;24468;52.128;9.278;2023-04-09T10:11:37;101763.34;;;12.29;100.00
38718;BME280;24468;52.128;9.278;2023-04-09T10:14:03;101751.88;;;12.75;100.00
38718;BME280;24468;52.128;9.278;2023-04-09T10:16:30;101744.88;;;12.95;100.00
38718;BME280;24468;52.128;9.278;2023-04-09T10:18:57;101750.91;;;12.21;100.00
38718;BME280;24468;52.128;9.278;2023-04-09T10:24:31;101727.50;;;13.00;100.00
38718;BME280;24468;52.128;9.278;2023-04-09T10:27:13;101729.19;;;13.29;100.00
38718;BME280;24468;52.128;9.278;2023-04-09T10:29:48;101733.50;;;13.35;100.00
38718;BME280;24468;52.128;9.278;2023-04-09T10:32:23;101718.84;;;13.88;100.00
38718;BME280;24468;52.128;9.278;2023-04-09T10:34:56;101726.16;;;13.39;100.00
38718;BME280;24468;52.128;9.278;2023-04-09T10:37:25;101725.44;;;13.33;100.00
38718;BME280;24468;52.128;9.278;2023-04-09T10:39:52;101720.41;;;13.71;100.00
38718;BME280;24468;52.128;9.278;2023-04-09T10:42:38;101722.88;;;13.29;99.41
38718;BME280;24468;52.128;9.278;2023-04-09T10:45:08;101712.75;;;13.81;100.00
38718;BME280;24468;52.128;9.278;2023-04-09T10:47:37;101719.31;;;13.75;99.49
38718;BME280;24468;52.128;9.278;2023-04-09T10:50:22;101728.38;;;13.51;97.38
38718;BME280;24468;52.128;9.278;2023-04-09T10:52:54;101724.97;;;13.21;100.00
38718;BME280;24468;52.128;9.278;2023-04-09T10:55:39;101716.00;;;13.19;100.00
38718;BME280;24468;52.128;9.278;2023-04-09T10:58:10;101728.03;;;13.37;100.00
38718;BME280;24468;52.128;9.278;2023-04-09T11:00:42;101719.78;;;13.87;100.00
38718;BME280;24468;52.128;9.278;2023-04-09T11:05:37;101709.44;;;13.74;98.22
38718;BME280;24468;52.128;9.278;2023-04-09T11:08:12;101711.50;;;14.35;92.20
38718;BME280;24468;52.128;9.278;2023-04-09T11:10:41;101704.66;;;14.03;94.96
38718;BME280;24468;52.128;9.278;2023-04-09T11:13:13;101703.53;;;14.31;94.42
38718;BME280;24468;52.128;9.278;2023-04-09T11:15:39;101705.03;;;13.94;91.10
38718;BME280;24468;52.128;9.278;2023-04-09T11:18:05;101700.13;;;14.26;93.83
38718;BME280;24468;52.128;9.278;2023-04-09T11:20:33;101696.78;;;13.97;94.32
38718;BME280;24468;52.128;9.278;2023-04-09T11:22:59;101700.19;;;14.46;89.66
38718;BME280;24468;52.128;9.278;2023-04-09T11:25:32;101690.88;;;14.74;87.88
38718;BME280;24468;52.128;9.278;2023-04-09T11:27:59;101689.88;;;14.97;82.57
38718;BME280;24468;52.128;9.278;2023-04-09T11:30:26;101692.31;;;15.23;82.84
38718;BME280;24468;52.128;9.278;2023-04-09T11:32:54;101696.84;;;15.62;73.43
38718;BME280;24468;52.128;9.278;2023-04-09T11:35:21;101698.13;;;15.34;80.49
38718;BME280;24468;52.128;9.278;2023-04-09T11:37:48;101686.84;;;15.63;81.11
38718;BME280;24468;52.128;9.278;2023-04-09T11:40:26;101693.94;;;15.07;80.70
38718;BME280;24468;52.128;9.278;2023-04-09T11:42:54;101693.13;;;15.25;79.35
38718;BME280;24468;52.128;9.278;2023-04-09T11:45:25;101686.13;;;14.99;77.06
38718;BME280;24468;52.128;9.278;2023-04-09T11:47:52;101684.50;;;15.16;75.84
38718;BME280;24468;52.128;9.278;2023-04-09T11:50:18;101682.66;;;14.55;75.42
38718;BME280;24468;52.128;9.278;2023-04-09T11:52:45;101681.69;;;14.34;78.38
38718;BME280;24468;52.128;9.278;2023-04-09T11:55:17;101683.47;;;14.57;83.22
38718;BME280;24468;52.128;9.278;2023-04-09T11:57:46;101679.88;;;14.56;85.67
38718;BME280;24468;52.128;9.278;2023-04-09T12:00:14;101676.63;;;14.46;80.85
38718;BME280;24468;52.128;9.278;2023-04-09T12:02:43;101683.38;;;14.14;83.47
38718;BME280;24468;52.128;9.278;2023-04-09T12:05:21;101681.00;;;13.38;82.71
38718;BME280;24468;52.128;9.278;2023-04-09T12:07:48;101677.59;;;13.56;87.37
38718;BME280;24468;52.128;9.278;2023-04-09T12:10:13;101678.34;;;14.05;86.44
38718;BME280;24468;52.128;9.278;2023-04-09T12:12:44;101681.75;;;14.10;84.83
38718;BME280;24468;52.128;9.278;2023-04-09T12:15:24;101682.25;;;14.42;82.17
38718;BME280;24468;52.128;9.278;2023-04-09T12:17:53;101681.22;;;15.28;78.49
38718;BME280;24468;52.128;9.278;2023-04-09T12:20:34;101678.31;;;15.12;72.96
38718;BME280;24468;52.128;9.278;2023-04-09T12:23:02;101674.72;;;15.11;73.40
38718;BME280;24468;52.128;9.278;2023-04-09T12:25:36;101672.78;;;15.34;70.43
38718;BME280;24468;52.128;9.278;2023-04-09T12:28:04;101673.81;;;15.31;73.55
38718;BME280;24468;52.128;9.278;2023-04-09T12:30:31;101666.75;;;15.46;72.48
38718;BME280;24468;52.128;9.278;2023-04-09T12:32:57;101669.53;;;15.26;73.13
38718;BME280;24468;52.128;9.278;2023-04-09T12:35:23;101676.47;;;15.12;75.80
38718;BME280;24468;52.128;9.278;2023-04-09T12:37:49;101672.28;;;14.85;80.05
38718;BME280;24468;52.128;9.278;2023-04-09T12:40:15;101669.13;;;14.53;83.58
38718;BME280;24468;52.128;9.278;2023-04-09T12:42:42;101671.97;;;14.28;85.38
38718;BME280;24468;52.128;9.278;2023-04-09T12:45:16;101670.59;;;14.18;83.74
38718;BME280;24468;52.128;9.278;2023-04-09T12:47:42;101671.88;;;14.52;84.11
38718;BME280;24468;52.128;9.278;2023-04-09T12:50:09;101667.47;;;14.49;81.60
38718;BME280;24468;52.128;9.278;2023-04-09T12:52:35;101673.84;;;14.48;79.18
38718;BME280;24468;52.128;9.278;2023-04-09T12:55:02;101671.72;;;14.34;75.86
38718;BME280;24468;52.128;9.278;2023-04-09T12:57:29;101666.59;;;14.49;76.83
38718;BME280;24468;52.128;9.278;2023-04-09T12:59:55;101663.31;;;14.62;74.32